SBOSBO SSH / HESH
Speedbird OnlineSpeedbird Online SSH / HESH

Sharm El Sheikh International Airport
22:25 35°C

Location Sharm El Sheikh, Egypt
Latitude: 27.9773006439
Longitude: 34.3950004578
Local Time 22:25 on 19 Jun 2024
UTC +3 hours (Africa/Cairo)
Currency £1 equals EGP 60.74
METAR HESH 191900Z 36005KT CAVOK 35/14 Q1003 NOSIG
TAF TAF HESH 191700Z 1918/2024 33012KT CAVOK
Weather As Of 19 Jun 2024 22:25
Description Clear sky
Wind 9 km/h from North (360°)
Cloud Cover 0%
Precipitation Rain: none, Snow: none
Sunrise 05:46
Sunset 19:41
NOTAM 1 active NOTAM
Rotations During the last 90 days there were
8 flights from LGW
8 flights to LGW
Web Wikipedia
Codes IATA: SSH
ICAO: HESH
Altitude 44 Meter / 143 Feet
Distance 3,866 KM / 2,402 Miles
from London.
Runways
RunwayLength (m)Surface
04L3081Asphalt
04R3081Asphalt
22L3081Asphalt
22R3081Asphalt
Radio
TypeDescriptionFrequency
APPRADAR121.1
GNDGND121.9
RDORDO317.5
TWRTWR118.9
Live ATC



Support Speedbird Online

© 2017-2024 Speedbird Online